sensor_id;sensor_type;location;lat;lon;timestamp;P1;durP1;ratioP1;P2;durP2;ratioP2
18280;SDS011;9266;51.132;17.062;2023-04-27T00:00:16;14.27;;;8.93;;
18280;SDS011;9266;51.132;17.062;2023-04-27T00:02:43;12.10;;;8.83;;
18280;SDS011;9266;51.132;17.062;2023-04-27T00:05:10;13.27;;;8.83;;
18280;SDS011;9266;51.132;17.062;2023-04-27T00:07:37;15.27;;;9.20;;
18280;SDS011;9266;51.132;17.062;2023-04-27T00:10:05;14.93;;;9.40;;
18280;SDS011;9266;51.132;17.062;2023-04-27T00:12:33;13.57;;;8.83;;
18280;SDS011;9266;51.132;17.062;2023-04-27T00:15:00;12.43;;;9.17;;
18280;SDS011;9266;51.132;17.062;2023-04-27T00:17:29;17.30;;;11.03;;
18280;SDS011;9266;51.132;17.062;2023-04-27T00:19:56;16.97;;;9.63;;
18280;SDS011;9266;51.132;17.062;2023-04-27T00:22:24;12.80;;;9.07;;
18280;SDS011;9266;51.132;17.062;2023-04-27T00:24:51;15.57;;;9.90;;
18280;SDS011;9266;51.132;17.062;2023-04-27T00:27:18;13.73;;;9.30;;
18280;SDS011;9266;51.132;17.062;2023-04-27T00:29:45;17.33;;;9.60;;
18280;SDS011;9266;51.132;17.062;2023-04-27T00:32:12;16.73;;;9.30;;
18280;SDS011;9266;51.132;17.062;2023-04-27T00:34:41;14.03;;;9.07;;
18280;SDS011;9266;51.132;17.062;2023-04-27T00:37:08;14.97;;;8.63;;
18280;SDS011;9266;51.132;17.062;2023-04-27T00:39:35;13.70;;;9.07;;
18280;SDS011;9266;51.132;17.062;2023-04-27T00:42:02;13.97;;;9.63;;
18280;SDS011;9266;51.132;17.062;2023-04-27T00:44:29;10.83;;;8.63;;
18280;SDS011;9266;51.132;17.062;2023-04-27T00:46:56;14.27;;;9.07;;
18280;SDS011;9266;51.132;17.062;2023-04-27T00:49:24;12.57;;;8.97;;
18280;SDS011;9266;51.132;17.062;2023-04-27T00:51:53;12.43;;;9.13;;
18280;SDS011;9266;51.132;17.062;2023-04-27T00:54:21;12.47;;;8.53;;
18280;SDS011;9266;51.132;17.062;2023-04-27T00:56:48;13.63;;;9.13;;
18280;SDS011;9266;51.132;17.062;2023-04-27T00:59:16;13.50;;;9.10;;
18280;SDS011;9266;51.132;17.062;2023-04-27T01:01:43;12.80;;;8.80;;
18280;SDS011;9266;51.132;17.062;2023-04-27T01:04:11;11.27;;;8.77;;
18280;SDS011;9266;51.132;17.062;2023-04-27T01:06:38;12.57;;;8.70;;
18280;SDS011;9266;51.132;17.062;2023-04-27T01:09:06;13.40;;;9.27;;
18280;SDS011;9266;51.132;17.062;2023-04-27T01:11:35;16.97;;;9.40;;
18280;SDS011;9266;51.132;17.062;2023-04-27T01:14:02;13.90;;;9.87;;
18280;SDS011;9266;51.132;17.062;2023-04-27T01:16:30;14.90;;;9.63;;
18280;SDS011;9266;51.132;17.062;2023-04-27T01:18:57;14.37;;;8.60;;
18280;SDS011;9266;51.132;17.062;2023-04-27T01:21:25;13.03;;;9.57;;
18280;SDS011;9266;51.132;17.062;2023-04-27T01:23:53;13.63;;;8.37;;
18280;SDS011;9266;51.132;17.062;2023-04-27T01:26:20;13.47;;;8.60;;
18280;SDS011;9266;51.132;17.062;2023-04-27T01:28:47;14.17;;;9.47;;
18280;SDS011;9266;51.132;17.062;2023-04-27T01:31:14;12.67;;;9.27;;
18280;SDS011;9266;51.132;17.062;2023-04-27T01:33:41;13.00;;;8.90;;
18280;SDS011;9266;51.132;17.062;2023-04-27T01:36:08;12.23;;;8.57;;
18280;SDS011;9266;51.132;17.062;2023-04-27T01:38:36;18.43;;;9.67;;
18280;SDS011;9266;51.132;17.062;2023-04-27T01:41:04;14.63;;;9.17;;
18280;SDS011;9266;51.132;17.062;2023-04-27T01:43:33;13.03;;;9.43;;
18280;SDS011;9266;51.132;17.062;2023-04-27T01:46:04;12.07;;;9.40;;
18280;SDS011;9266;51.132;17.062;2023-04-27T01:48:32;12.10;;;9.20;;
18280;SDS011;9266;51.132;17.062;2023-04-27T01:50:59;14.40;;;8.47;;
18280;SDS011;9266;51.132;17.062;2023-04-27T01:53:26;15.70;;;9.37;;
18280;SDS011;9266;51.132;17.062;2023-04-27T01:55:53;12.83;;;9.63;;
18280;SDS011;9266;51.132;17.062;2023-04-27T01:58:22;15.33;;;8.93;;
18280;SDS011;9266;51.132;17.062;2023-04-27T02:00:49;12.83;;;9.43;;
18280;SDS011;9266;51.132;17.062;2023-04-27T02:03:16;15.63;;;9.37;;
18280;SDS011;9266;51.132;17.062;2023-04-27T02:05:43;12.90;;;9.27;;
18280;SDS011;9266;51.132;17.062;2023-04-27T02:08:11;15.23;;;8.83;;
18280;SDS011;9266;51.132;17.062;2023-04-27T02:10:38;13.07;;;8.83;;
18280;SDS011;9266;51.132;17.062;2023-04-27T02:13:05;17.27;;;8.83;;
18280;SDS011;9266;51.132;17.062;2023-04-27T02:15:34;11.00;;;8.03;;
18280;SDS011;9266;51.132;17.062;2023-04-27T02:18:01;12.70;;;8.97;;
18280;SDS011;9266;51.132;17.062;2023-04-27T02:20:28;11.40;;;8.37;;
18280;SDS011;9266;51.132;17.062;2023-04-27T02:22:57;13.07;;;8.57;;
18280;SDS011;9266;51.132;17.062;2023-04-27T02:25:25;13.40;;;8.43;;
18280;SDS011;9266;51.132;17.062;2023-04-27T02:27:52;15.67;;;8.63;;
18280;SDS011;9266;51.132;17.062;2023-04-27T02:30:19;10.47;;;8.23;;
18280;SDS011;9266;51.132;17.062;2023-04-27T02:32:48;15.43;;;9.83;;
18280;SDS011;9266;51.132;17.062;2023-04-27T02:35:15;10.97;;;8.07;;
18280;SDS011;9266;51.132;17.062;2023-04-27T02:37:42;15.83;;;8.57;;
18280;SDS011;9266;51.132;17.062;2023-04-27T02:40:09;9.77;;;8.17;;
18280;SDS011;9266;51.132;17.062;2023-04-27T02:42:37;17.70;;;9.47;;
18280;SDS011;9266;51.132;17.062;2023-04-27T02:45:04;11.87;;;8.73;;
18280;SDS011;9266;51.132;17.062;2023-04-27T02:47:32;17.13;;;9.17;;
18280;SDS011;9266;51.132;17.062;2023-04-27T02:50:01;16.20;;;9.50;;
18280;SDS011;9266;51.132;17.062;2023-04-27T02:52:28;22.60;;;11.27;;
18280;SDS011;9266;51.132;17.062;2023-04-27T02:54:55;20.67;;;11.10;;
18280;SDS011;9266;51.132;17.062;2023-04-27T02:57:22;18.67;;;9.90;;
18280;SDS011;9266;51.132;17.062;2023-04-27T02:59:49;15.40;;;9.43;;
18280;SDS011;9266;51.132;17.062;2023-04-27T03:02:16;17.20;;;9.67;;
18280;SDS011;9266;51.132;17.062;2023-04-27T03:04:43;16.73;;;9.87;;
18280;SDS011;9266;51.132;17.062;2023-04-27T03:07:11;15.50;;;10.40;;
18280;SDS011;9266;51.132;17.062;2023-04-27T03:09:38;16.97;;;11.63;;
18280;SDS011;9266;51.132;17.062;2023-04-27T03:12:05;16.13;;;10.17;;
18280;SDS011;9266;51.132;17.062;2023-04-27T03:14:32;14.87;;;9.77;;
18280;SDS011;9266;51.132;17.062;2023-04-27T03:16:59;14.50;;;10.07;;
18280;SDS011;9266;51.132;17.062;2023-04-27T03:19:27;17.23;;;9.73;;
18280;SDS011;9266;51.132;17.062;2023-04-27T03:21:54;13.67;;;10.27;;
18280;SDS011;9266;51.132;17.062;2023-04-27T03:24:22;13.90;;;9.50;;
18280;SDS011;9266;51.132;17.062;2023-04-27T03:26:50;17.00;;;9.17;;
18280;SDS011;9266;51.132;17.062;2023-04-27T03:29:18;15.30;;;9.87;;
18280;SDS011;9266;51.132;17.062;2023-04-27T03:31:45;17.63;;;9.40;;
18280;SDS011;9266;51.132;17.062;2023-04-27T03:34:12;13.73;;;9.53;;
18280;SDS011;9266;51.132;17.062;2023-04-27T03:36:40;14.10;;;9.20;;
18280;SDS011;9266;51.132;17.062;2023-04-27T03:39:08;15.67;;;9.53;;
18280;SDS011;9266;51.132;17.062;2023-04-27T03:41:36;15.10;;;9.10;;
18280;SDS011;9266;51.132;17.062;2023-04-27T03:44:03;13.50;;;9.13;;
18280;SDS011;9266;51.132;17.062;2023-04-27T03:46:31;15.00;;;8.70;;
18280;SDS011;9266;51.132;17.062;2023-04-27T03:48:58;16.83;;;9.77;;
18280;SDS011;9266;51.132;17.062;2023-04-27T03:51:25;17.50;;;8.90;;
18280;SDS011;9266;51.132;17.062;2023-04-27T03:53:52;12.50;;;8.03;;
18280;SDS011;9266;51.132;17.062;2023-04-27T03:56:19;13.27;;;8.97;;
18280;SDS011;9266;51.132;17.062;2023-04-27T03:58:47;15.90;;;8.87;;
18280;SDS011;9266;51.132;17.062;2023-04-27T04:01:14;16.50;;;9.03;;
18280;SDS011;9266;51.132;17.062;2023-04-27T04:03:43;12.93;;;7.80;;
18280;SDS011;9266;51.132;17.062;2023-04-27T04:06:10;13.27;;;9.13;;
18280;SDS011;9266;51.132;17.062;2023-04-27T04:08:36;11.67;;;9.10;;
18280;SDS011;9266;51.132;17.062;2023-04-27T04:11:03;10.57;;;8.17;;
18280;SDS011;9266;51.132;17.062;2023-04-27T04:13:30;12.70;;;7.70;;
18280;SDS011;9266;51.132;17.062;2023-04-27T04:16:02;12.37;;;8.37;;
18280;SDS011;9266;51.132;17.062;2023-04-27T04:18:30;14.50;;;7.90;;
18280;SDS011;9266;51.132;17.062;2023-04-27T04:20:57;17.23;;;8.10;;
18280;SDS011;9266;51.132;17.062;2023-04-27T04:23:24;12.80;;;7.17;;
18280;SDS011;9266;51.132;17.062;2023-04-27T04:25:52;11.90;;;6.77;;
18280;SDS011;9266;51.132;17.062;2023-04-27T04:28:20;13.33;;;7.33;;
18280;SDS011;9266;51.132;17.062;2023-04-27T04:30:47;9.57;;;6.73;;
18280;SDS011;9266;51.132;17.062;2023-04-27T04:33:16;18.47;;;9.00;;
18280;SDS011;9266;51.132;17.062;2023-04-27T04:35:43;10.00;;;6.93;;
18280;SDS011;9266;51.132;17.062;2023-04-27T04:38:11;12.40;;;7.00;;
18280;SDS011;9266;51.132;17.062;2023-04-27T04:40:39;9.07;;;6.83;;
18280;SDS011;9266;51.132;17.062;2023-04-27T04:43:06;13.20;;;6.80;;
18280;SDS011;9266;51.132;17.062;2023-04-27T04:45:34;11.67;;;7.90;;
18280;SDS011;9266;51.132;17.062;2023-04-27T04:48:01;9.67;;;6.90;;
18280;SDS011;9266;51.132;17.062;2023-04-27T04:50:30;10.70;;;7.00;;
18280;SDS011;9266;51.132;17.062;2023-04-27T04:52:57;13.43;;;8.67;;
18280;SDS011;9266;51.132;17.062;2023-04-27T04:55:25;15.43;;;7.10;;
18280;SDS011;9266;51.132;17.062;2023-04-27T04:57:52;11.30;;;7.13;;
18280;SDS011;9266;51.132;17.062;2023-04-27T05:00:20;13.33;;;7.80;;
18280;SDS011;9266;51.132;17.062;2023-04-27T05:02:47;14.70;;;8.10;;
18280;SDS011;9266;51.132;17.062;2023-04-27T05:05:14;10.83;;;7.77;;
18280;SDS011;9266;51.132;17.062;2023-04-27T05:07:42;10.00;;;7.50;;
18280;SDS011;9266;51.132;17.062;2023-04-27T05:10:09;12.27;;;7.27;;
18280;SDS011;9266;51.132;17.062;2023-04-27T05:12:36;13.80;;;7.17;;
18280;SDS011;9266;51.132;17.062;2023-04-27T05:15:04;11.10;;;6.63;;
18280;SDS011;9266;51.132;17.062;2023-04-27T05:17:32;12.93;;;7.30;;
18280;SDS011;9266;51.132;17.062;2023-04-27T05:19:58;12.13;;;7.00;;
18280;SDS011;9266;51.132;17.062;2023-04-27T05:22:25;12.20;;;7.33;;
18280;SDS011;9266;51.132;17.062;2023-04-27T05:24:54;11.83;;;7.20;;
18280;SDS011;9266;51.132;17.062;2023-04-27T05:27:21;10.20;;;6.70;;
18280;SDS011;9266;51.132;17.062;2023-04-27T05:29:48;12.60;;;6.77;;
18280;SDS011;9266;51.132;17.062;2023-04-27T05:32:15;13.07;;;7.00;;
18280;SDS011;9266;51.132;17.062;2023-04-27T05:34:42;12.90;;;7.20;;
18280;SDS011;9266;51.132;17.062;2023-04-27T05:37:09;10.70;;;6.77;;
18280;SDS011;9266;51.132;17.062;2023-04-27T05:39:37;10.83;;;7.27;;
18280;SDS011;9266;51.132;17.062;2023-04-27T05:42:06;9.67;;;6.17;;
18280;SDS011;9266;51.132;17.062;2023-04-27T05:44:33;11.30;;;6.50;;
18280;SDS011;9266;51.132;17.062;2023-04-27T05:47:00;10.10;;;6.27;;
18280;SDS011;9266;51.132;17.062;2023-04-27T05:49:27;13.17;;;6.73;;
18280;SDS011;9266;51.132;17.062;2023-04-27T05:51:54;9.67;;;6.70;;
18280;SDS011;9266;51.132;17.062;2023-04-27T05:54:23;10.57;;;6.10;;
18280;SDS011;9266;51.132;17.062;2023-04-27T05:56:51;17.73;;;7.07;;
18280;SDS011;9266;51.132;17.062;2023-04-27T05:59:20;8.80;;;5.73;;
18280;SDS011;9266;51.132;17.062;2023-04-27T06:01:47;14.50;;;5.97;;
18280;SDS011;9266;51.132;17.062;2023-04-27T06:04:14;7.80;;;6.03;;
18280;SDS011;9266;51.132;17.062;2023-04-27T06:06:41;7.50;;;5.67;;
18280;SDS011;9266;51.132;17.062;2023-04-27T06:09:08;8.87;;;6.10;;
18280;SDS011;9266;51.132;17.062;2023-04-27T06:11:35;8.27;;;5.63;;
18280;SDS011;9266;51.132;17.062;2023-04-27T06:14:02;8.37;;;5.97;;
18280;SDS011;9266;51.132;17.062;2023-04-27T06:16:31;8.77;;;6.30;;
18280;SDS011;9266;51.132;17.062;2023-04-27T06:18:58;9.33;;;6.67;;
18280;SDS011;9266;51.132;17.062;2023-04-27T06:21:25;10.97;;;6.67;;
18280;SDS011;9266;51.132;17.062;2023-04-27T06:23:52;9.13;;;5.87;;
18280;SDS011;9266;51.132;17.062;2023-04-27T06:26:19;10.03;;;5.93;;
18280;SDS011;9266;51.132;17.062;2023-04-27T06:28:46;7.43;;;5.17;;
18280;SDS011;9266;51.132;17.062;2023-04-27T06:31:13;7.80;;;5.60;;
18280;SDS011;9266;51.132;17.062;2023-04-27T06:33:41;9.23;;;5.90;;
18280;SDS011;9266;51.132;17.062;2023-04-27T06:36:08;7.70;;;5.77;;
18280;SDS011;9266;51.132;17.062;2023-04-27T06:38:37;11.83;;;8.10;;
18280;SDS011;9266;51.132;17.062;2023-04-27T06:41:04;9.67;;;5.77;;
18280;SDS011;9266;51.132;17.062;2023-04-27T06:43:31;9.53;;;6.07;;
18280;SDS011;9266;51.132;17.062;2023-04-27T06:45:58;9.50;;;5.67;;
18280;SDS011;9266;51.132;17.062;2023-04-27T06:48:25;10.73;;;5.87;;
18280;SDS011;9266;51.132;17.062;2023-04-27T06:50:54;11.20;;;6.07;;
18280;SDS011;9266;51.132;17.062;2023-04-27T06:53:21;10.33;;;5.43;;
18280;SDS011;9266;51.132;17.062;2023-04-27T06:55:48;9.50;;;5.37;;
18280;SDS011;9266;51.132;17.062;2023-04-27T06:58:15;9.23;;;5.20;;
18280;SDS011;9266;51.132;17.062;2023-04-27T07:00:42;7.40;;;4.90;;
18280;SDS011;9266;51.132;17.062;2023-04-27T07:03:09;6.97;;;4.37;;
18280;SDS011;9266;51.132;17.062;2023-04-27T07:05:36;8.27;;;4.77;;
18280;SDS011;9266;51.132;17.062;2023-04-27T07:08:05;15.17;;;4.43;;
18280;SDS011;9266;51.132;17.062;2023-04-27T07:10:32;8.40;;;4.40;;
18280;SDS011;9266;51.132;17.062;2023-04-27T07:12:59;7.07;;;4.70;;
18280;SDS011;9266;51.132;17.062;2023-04-27T07:15:26;9.63;;;4.43;;
18280;SDS011;9266;51.132;17.062;2023-04-27T07:17:53;8.83;;;4.80;;
18280;SDS011;9266;51.132;17.062;2023-04-27T07:20:20;10.23;;;5.07;;
18280;SDS011;9266;51.132;17.062;2023-04-27T07:22:48;7.30;;;4.83;;
18280;SDS011;9266;51.132;17.062;2023-04-27T07:25:16;6.63;;;4.33;;
18280;SDS011;9266;51.132;17.062;2023-04-27T07:27:43;7.27;;;4.80;;
18280;SDS011;9266;51.132;17.062;2023-04-27T07:30:11;9.40;;;4.53;;
18280;SDS011;9266;51.132;17.062;2023-04-27T07:32:38;6.77;;;4.57;;
18280;SDS011;9266;51.132;17.062;2023-04-27T07:35:06;7.03;;;4.00;;
18280;SDS011;9266;51.132;17.062;2023-04-27T07:37:34;5.87;;;4.20;;
18280;SDS011;9266;51.132;17.062;2023-04-27T07:40:01;6.37;;;3.87;;
18280;SDS011;9266;51.132;17.062;2023-04-27T07:42:37;7.20;;;3.90;;
18280;SDS011;9266;51.132;17.062;2023-04-27T07:45:05;8.40;;;4.03;;
18280;SDS011;9266;51.132;17.062;2023-04-27T07:47:33;5.57;;;3.90;;
18280;SDS011;9266;51.132;17.062;2023-04-27T07:50:01;6.03;;;3.53;;
18280;SDS011;9266;51.132;17.062;2023-04-27T07:52:30;5.83;;;3.70;;
18280;SDS011;9266;51.132;17.062;2023-04-27T07:54:57;4.40;;;3.50;;
18280;SDS011;9266;51.132;17.062;2023-04-27T07:57:24;6.53;;;3.60;;
18280;SDS011;9266;51.132;17.062;2023-04-27T07:59:53;6.40;;;3.90;;
18280;SDS011;9266;51.132;17.062;2023-04-27T08:02:20;7.40;;;3.67;;
18280;SDS011;9266;51.132;17.062;2023-04-27T08:04:48;8.10;;;3.50;;
18280;SDS011;9266;51.132;17.062;2023-04-27T08:07:15;7.93;;;4.20;;
18280;SDS011;9266;51.132;17.062;2023-04-27T08:09:43;5.87;;;3.70;;
18280;SDS011;9266;51.132;17.062;2023-04-27T08:12:10;6.03;;;3.70;;
18280;SDS011;9266;51.132;17.062;2023-04-27T08:14:37;6.67;;;4.00;;
18280;SDS011;9266;51.132;17.062;2023-04-27T08:17:06;6.57;;;3.93;;
18280;SDS011;9266;51.132;17.062;2023-04-27T08:19:33;6.07;;;4.40;;
18280;SDS011;9266;51.132;17.062;2023-04-27T08:22:00;5.97;;;4.90;;
18280;SDS011;9266;51.132;17.062;2023-04-27T08:24:27;7.77;;;3.63;;
18280;SDS011;9266;51.132;17.062;2023-04-27T08:26:54;6.33;;;3.00;;
18280;SDS011;9266;51.132;17.062;2023-04-27T08:29:21;10.17;;;3.60;;
18280;SDS011;9266;51.132;17.062;2023-04-27T08:31:48;8.50;;;3.60;;
18280;SDS011;9266;51.132;17.062;2023-04-27T08:34:16;6.93;;;3.90;;
18280;SDS011;9266;51.132;17.062;2023-04-27T08:36:43;9.73;;;3.93;;
18280;SDS011;9266;51.132;17.062;2023-04-27T08:39:10;6.47;;;3.60;;
18280;SDS011;9266;51.132;17.062;2023-04-27T08:41:39;6.47;;;3.70;;
18280;SDS011;9266;51.132;17.062;2023-04-27T08:44:08;6.37;;;3.80;;
18280;SDS011;9266;51.132;17.062;2023-04-27T08:46:35;7.40;;;4.30;;
18280;SDS011;9266;51.132;17.062;2023-04-27T08:49:03;5.77;;;4.20;;
18280;SDS011;9266;51.132;17.062;2023-04-27T08:51:32;7.43;;;4.37;;
18280;SDS011;9266;51.132;17.062;2023-04-27T08:53:59;5.73;;;4.27;;
18280;SDS011;9266;51.132;17.062;2023-04-27T08:56:27;7.23;;;4.50;;
18280;SDS011;9266;51.132;17.062;2023-04-27T08:58:55;7.20;;;4.80;;
18280;SDS011;9266;51.132;17.062;2023-04-27T09:01:23;9.57;;;4.40;;
18280;SDS011;9266;51.132;17.062;2023-04-27T09:03:54;10.13;;;4.37;;
18280;SDS011;9266;51.132;17.062;2023-04-27T09:06:28;7.20;;;4.20;;
18280;SDS011;9266;51.132;17.062;2023-04-27T09:08:57;7.47;;;4.33;;
18280;SDS011;9266;51.132;17.062;2023-04-27T09:11:28;6.13;;;3.87;;
18280;SDS011;9266;51.132;17.062;2023-04-27T09:13:57;8.40;;;5.00;;
18280;SDS011;9266;51.132;17.062;2023-04-27T09:16:24;7.33;;;4.20;;
18280;SDS011;9266;51.132;17.062;2023-04-27T09:18:53;7.90;;;4.30;;
18280;SDS011;9266;51.132;17.062;2023-04-27T09:21:21;8.63;;;5.07;;
18280;SDS011;9266;51.132;17.062;2023-04-27T09:23:49;6.60;;;4.20;;
18280;SDS011;9266;51.132;17.062;2023-04-27T09:26:19;6.23;;;4.53;;
18280;SDS011;9266;51.132;17.062;2023-04-27T09:28:47;9.07;;;5.10;;
18280;SDS011;9266;51.132;17.062;2023-04-27T09:31:16;4.60;;;3.77;;
18280;SDS011;9266;51.132;17.062;2023-04-27T09:33:43;6.73;;;4.80;;
18280;SDS011;9266;51.132;17.062;2023-04-27T09:36:11;6.20;;;4.10;;
18280;SDS011;9266;51.132;17.062;2023-04-27T09:38:39;7.93;;;3.90;;
18280;SDS011;9266;51.132;17.062;2023-04-27T09:41:06;7.30;;;4.80;;
18280;SDS011;9266;51.132;17.062;2023-04-27T09:43:35;8.03;;;4.43;;
18280;SDS011;9266;51.132;17.062;2023-04-27T09:46:03;7.13;;;3.87;;
18280;SDS011;9266;51.132;17.062;2023-04-27T09:48:31;8.47;;;4.23;;
18280;SDS011;9266;51.132;17.062;2023-04-27T09:50:58;5.93;;;5.27;;
18280;SDS011;9266;51.132;17.062;2023-04-27T09:53:26;8.00;;;4.73;;
18280;SDS011;9266;51.132;17.062;2023-04-27T09:56:00;5.93;;;4.20;;
18280;SDS011;9266;51.132;17.062;2023-04-27T09:58:47;7.40;;;3.90;;
18280;SDS011;9266;51.132;17.062;2023-04-27T10:01:25;6.30;;;4.20;;
18280;SDS011;9266;51.132;17.062;2023-04-27T10:04:04;7.30;;;4.97;;
18280;SDS011;9266;51.132;17.062;2023-04-27T10:06:50;8.20;;;4.40;;
18280;SDS011;9266;51.132;17.062;2023-04-27T10:09:22;5.77;;;3.50;;
18280;SDS011;9266;51.132;17.062;2023-04-27T10:11:50;4.17;;;3.67;;
18280;SDS011;9266;51.132;17.062;2023-04-27T10:14:20;6.07;;;3.90;;
18280;SDS011;9266;51.132;17.062;2023-04-27T10:16:49;6.73;;;4.03;;
18280;SDS011;9266;51.132;17.062;2023-04-27T10:19:17;7.27;;;4.47;;
18280;SDS011;9266;51.132;17.062;2023-04-27T10:21:52;8.27;;;7.40;;
18280;SDS011;9266;51.132;17.062;2023-04-27T10:24:30;7.83;;;4.80;;
18280;SDS011;9266;51.132;17.062;2023-04-27T10:27:00;6.23;;;4.60;;
18280;SDS011;9266;51.132;17.062;2023-04-27T10:29:35;6.20;;;4.10;;
18280;SDS011;9266;51.132;17.062;2023-04-27T10:32:07;5.77;;;3.93;;
18280;SDS011;9266;51.132;17.062;2023-04-27T10:34:35;5.40;;;4.17;;
18280;SDS011;9266;51.132;17.062;2023-04-27T10:37:06;5.67;;;3.83;;
18280;SDS011;9266;51.132;17.062;2023-04-27T10:39:39;6.33;;;4.20;;
18280;SDS011;9266;51.132;17.062;2023-04-27T10:42:07;7.90;;;4.57;;
18280;SDS011;9266;51.132;17.062;2023-04-27T10:44:37;5.33;;;4.20;;
18280;SDS011;9266;51.132;17.062;2023-04-27T10:47:12;6.87;;;4.43;;
18280;SDS011;9266;51.132;17.062;2023-04-27T10:49:40;5.57;;;4.60;;
18280;SDS011;9266;51.132;17.062;2023-04-27T10:52:07;8.93;;;5.00;;
18280;SDS011;9266;51.132;17.062;2023-04-27T10:54:34;8.67;;;4.20;;
18280;SDS011;9266;51.132;17.062;2023-04-27T10:57:04;5.20;;;3.83;;
18280;SDS011;9266;51.132;17.062;2023-04-27T10:59:32;6.20;;;4.37;;
18280;SDS011;9266;51.132;17.062;2023-04-27T11:02:02;5.83;;;4.10;;
18280;SDS011;9266;51.132;17.062;2023-04-27T11:04:36;6.03;;;3.90;;
18280;SDS011;9266;51.132;17.062;2023-04-27T11:07:05;7.77;;;4.27;;
18280;SDS011;9266;51.132;17.062;2023-04-27T11:09:34;8.63;;;4.10;;
18280;SDS011;9266;51.132;17.062;2023-04-27T11:12:04;7.30;;;4.17;;
18280;SDS011;9266;51.132;17.062;2023-04-27T11:14:32;6.43;;;4.30;;
18280;SDS011;9266;51.132;17.062;2023-04-27T11:17:00;9.10;;;4.80;;
18280;SDS011;9266;51.132;17.062;2023-04-27T11:19:30;6.33;;;5.07;;
18280;SDS011;9266;51.132;17.062;2023-04-27T11:22:03;7.83;;;5.00;;
18280;SDS011;9266;51.132;17.062;2023-04-27T11:24:31;7.33;;;5.70;;
18280;SDS011;9266;51.132;17.062;2023-04-27T11:26:58;16.37;;;11.20;;
18280;SDS011;9266;51.132;17.062;2023-04-27T11:29:36;7.23;;;5.33;;
18280;SDS011;9266;51.132;17.062;2023-04-27T11:32:05;6.90;;;4.83;;
18280;SDS011;9266;51.132;17.062;2023-04-27T11:34:32;9.50;;;5.07;;
18280;SDS011;9266;51.132;17.062;2023-04-27T11:37:03;7.67;;;5.30;;
18280;SDS011;9266;51.132;17.062;2023-04-27T11:39:32;10.00;;;5.80;;
18280;SDS011;9266;51.132;17.062;2023-04-27T11:42:13;8.37;;;5.37;;
18280;SDS011;9266;51.132;17.062;2023-04-27T11:44:48;8.57;;;4.97;;
18280;SDS011;9266;51.132;17.062;2023-04-27T11:47:18;9.40;;;4.87;;
18280;SDS011;9266;51.132;17.062;2023-04-27T11:49:47;6.10;;;4.60;;
18280;SDS011;9266;51.132;17.062;2023-04-27T11:52:14;9.53;;;5.10;;
18280;SDS011;9266;51.132;17.062;2023-04-27T11:54:48;9.27;;;5.27;;
18280;SDS011;9266;51.132;17.062;2023-04-27T11:57:17;8.73;;;4.80;;
18280;SDS011;9266;51.132;17.062;2023-04-27T11:59:49;7.30;;;4.23;;
18280;SDS011;9266;51.132;17.062;2023-04-27T12:02:16;6.43;;;4.40;;
18280;SDS011;9266;51.132;17.062;2023-04-27T12:04:47;11.33;;;4.73;;
18280;SDS011;9266;51.132;17.062;2023-04-27T12:07:14;4.90;;;4.47;;
18280;SDS011;9266;51.132;17.062;2023-04-27T12:09:41;5.53;;;4.80;;
18280;SDS011;9266;51.132;17.062;2023-04-27T12:12:08;9.47;;;5.13;;
18280;SDS011;9266;51.132;17.062;2023-04-27T12:14:36;6.80;;;5.10;;
18280;SDS011;9266;51.132;17.062;2023-04-27T12:17:03;7.40;;;4.73;;
18280;SDS011;9266;51.132;17.062;2023-04-27T12:19:32;9.80;;;5.07;;
18280;SDS011;9266;51.132;17.062;2023-04-27T12:22:01;6.37;;;5.63;;
18280;SDS011;9266;51.132;17.062;2023-04-27T12:24:28;7.57;;;4.97;;
18280;SDS011;9266;51.132;17.062;2023-04-27T12:26:55;14.60;;;8.63;;
18280;SDS011;9266;51.132;17.062;2023-04-27T12:29:22;10.10;;;6.73;;
18280;SDS011;9266;51.132;17.062;2023-04-27T12:31:50;7.37;;;5.93;;
18280;SDS011;9266;51.132;17.062;2023-04-27T12:34:17;7.10;;;6.33;;
18280;SDS011;9266;51.132;17.062;2023-04-27T12:36:45;7.23;;;5.73;;
18280;SDS011;9266;51.132;17.062;2023-04-27T12:39:13;7.73;;;5.60;;
18280;SDS011;9266;51.132;17.062;2023-04-27T12:41:41;7.03;;;5.80;;
18280;SDS011;9266;51.132;17.062;2023-04-27T12:44:09;6.60;;;4.97;;
18280;SDS011;9266;51.132;17.062;2023-04-27T12:46:36;9.60;;;5.50;;
18280;SDS011;9266;51.132;17.062;2023-04-27T12:49:03;9.07;;;5.67;;
18280;SDS011;9266;51.132;17.062;2023-04-27T12:51:32;5.47;;;4.50;;
18280;SDS011;9266;51.132;17.062;2023-04-27T12:54:01;6.93;;;4.80;;
18280;SDS011;9266;51.132;17.062;2023-04-27T12:56:29;7.00;;;4.37;;
18280;SDS011;9266;51.132;17.062;2023-04-27T12:58:56;6.07;;;4.33;;
18280;SDS011;9266;51.132;17.062;2023-04-27T13:01:24;6.67;;;3.93;;
18280;SDS011;9266;51.132;17.062;2023-04-27T13:03:52;4.20;;;3.80;;
18280;SDS011;9266;51.132;17.062;2023-04-27T13:06:21;5.83;;;4.40;;
18280;SDS011;9266;51.132;17.062;2023-04-27T13:08:48;6.23;;;4.50;;
18280;SDS011;9266;51.132;17.062;2023-04-27T13:11:17;8.70;;;4.30;;
18280;SDS011;9266;51.132;17.062;2023-04-27T13:13:44;4.97;;;3.97;;
18280;SDS011;9266;51.132;17.062;2023-04-27T13:16:12;6.90;;;4.63;;
18280;SDS011;9266;51.132;17.062;2023-04-27T13:18:40;6.83;;;4.90;;
18280;SDS011;9266;51.132;17.062;2023-04-27T13:21:11;5.60;;;4.60;;
18280;SDS011;9266;51.132;17.062;2023-04-27T13:23:39;5.10;;;4.60;;
18280;SDS011;9266;51.132;17.062;2023-04-27T13:26:06;5.83;;;4.13;;
18280;SDS011;9266;51.132;17.062;2023-04-27T13:28:34;8.07;;;4.30;;
18280;SDS011;9266;51.132;17.062;2023-04-27T13:31:01;6.47;;;4.30;;
18280;SDS011;9266;51.132;17.062;2023-04-27T13:33:30;6.90;;;4.63;;
18280;SDS011;9266;51.132;17.062;2023-04-27T13:35:58;7.50;;;4.27;;
18280;SDS011;9266;51.132;17.062;2023-04-27T13:38:26;7.90;;;4.47;;
18280;SDS011;9266;51.132;17.062;2023-04-27T13:40:53;7.33;;;4.47;;
18280;SDS011;9266;51.132;17.062;2023-04-27T13:43:20;6.67;;;4.20;;
18280;SDS011;9266;51.132;17.062;2023-04-27T13:45:49;6.97;;;4.60;;
18280;SDS011;9266;51.132;17.062;2023-04-27T13:48:18;6.30;;;4.57;;
18280;SDS011;9266;51.132;17.062;2023-04-27T13:50:45;4.80;;;4.13;;
18280;SDS011;9266;51.132;17.062;2023-04-27T13:53:13;7.40;;;4.20;;
18280;SDS011;9266;51.132;17.062;2023-04-27T13:55:41;5.77;;;4.43;;
18280;SDS011;9266;51.132;17.062;2023-04-27T13:58:08;6.93;;;4.67;;
18280;SDS011;9266;51.132;17.062;2023-04-27T14:00:36;9.87;;;5.67;;
18280;SDS011;9266;51.132;17.062;2023-04-27T14:03:04;10.10;;;5.80;;
18280;SDS011;9266;51.132;17.062;2023-04-27T14:05:32;6.87;;;4.90;;
18280;SDS011;9266;51.132;17.062;2023-04-27T14:07:59;7.27;;;4.67;;
18280;SDS011;9266;51.132;17.062;2023-04-27T14:10:27;5.90;;;4.60;;
18280;SDS011;9266;51.132;17.062;2023-04-27T14:12:55;7.33;;;5.33;;
18280;SDS011;9266;51.132;17.062;2023-04-27T14:15:22;8.07;;;5.43;;
18280;SDS011;9266;51.132;17.062;2023-04-27T14:17:50;7.83;;;5.40;;
18280;SDS011;9266;51.132;17.062;2023-04-27T14:20:18;6.70;;;4.97;;
18280;SDS011;9266;51.132;17.062;2023-04-27T14:22:46;8.43;;;6.20;;
18280;SDS011;9266;51.132;17.062;2023-04-27T14:25:14;5.73;;;4.73;;
18280;SDS011;9266;51.132;17.062;2023-04-27T14:27:41;5.13;;;4.40;;
18280;SDS011;9266;51.132;17.062;2023-04-27T14:30:08;6.53;;;4.87;;
18280;SDS011;9266;51.132;17.062;2023-04-27T14:32:35;6.10;;;4.60;;
18280;SDS011;9266;51.132;17.062;2023-04-27T14:35:03;6.40;;;5.30;;
18280;SDS011;9266;51.132;17.062;2023-04-27T14:37:32;5.33;;;4.80;;
18280;SDS011;9266;51.132;17.062;2023-04-27T14:39:59;5.73;;;4.73;;
18280;SDS011;9266;51.132;17.062;2023-04-27T14:42:27;6.17;;;4.57;;
18280;SDS011;9266;51.132;17.062;2023-04-27T14:44:54;7.20;;;5.40;;